Fayetteville, AR (72701)

2:24 AM CST on November 27, 2014 (GMT -0600)
Porter Road, Fayetteville | Change Station
CLOSE
Current Station
Personal Weather Station
Location: Fayetteville, AR
Elevation: 1260 ft
Nearby Weather Stations

Elev 1260 ft 36.08 °N, 94.19 °W | Updated 1 minute ago

Overcast
Overcast
30.2 °F
Feels Like 30 °F
N
1.1
Wind Variable Wind from NW
Gusts 2.5 mph

Today
High -- | Low -- °F
--% Chance of Precip.
Yesterday
High -- | Low -- °F
Precip. -- in
7:05 AM 5:03 PM
Waxing Crescent, 27% visible
Pressure 30.43 in
Visibility 10.0 miles
Clouds Overcast 2100 ft
Windchill 30 °F
Dew Point 25 °F
Humidity 82%
Rainfall 0.00 in
Snow Depth Not available.
UV 0 out of 12
Pollen 3.70 out of 12
Air Quality Not available.
Flu Activity Not available.
METAR KFYV 270753Z AUTO 33007KT 10SM OVC021 M01/M04 A3041 RMK AO2 SLP302 T10111044

More Conditions Fewer Conditions

Pressure 30.43 in
Visibility 10.0 miles
Clouds Overcast 2100 ft
Windchill 30 °F
Dew Point 25 °F
Humidity 82%
Rainfall 0.00 in
Snow Depth Not available.
UV 0 out of 12
Pollen 3.70 out of 12
Air Quality Not available.
Flu Activity Not available.
METAR KFYV 270753Z AUTO 33007KT 10SM OVC021 M01/M04 A3041 RMK AO2 SLP302 T10111044

More Conditions Fewer Conditions

10-Day Weather Forecast

Almanac

Astronomy

Nov. 27, 2014 Rise Set
Actual Time
Civil Twilight
Nautical Twilight
Astronomical Twilight
Moon
Length of Visible Light
Length of Day
Tomorrow will be .
, % of the Moon is Illuminated

Today's Extremes

State Highs State Lows

Community

WunderPhotos

Upload Photos

1,773,965 photos uploaded!

WunderBlogs® & News

Nearby

Air Quality

  Air Quality AQ Index Pollutant
Not available.

Snow Depth

Station Depth Elevation

Earthquake Activity

City Distance Mag. Time & Date
Minimum magnitude displayed is 2.5.

Coastal Water Temperatures

Place Temperature

Nearby Weather Stations